Time;durP1;ratioP1;P1;durP2;ratioP2;P2;SDS_P1;SDS_P2;PMS_P1;PMS_P2;Temp;Humidity;BMP_temperature;BMP_pressure;BME280_temperature;BME280_humidity;BME280_pressure;Samples;Min_cycle;Max_cycle;Signal;HPM_P1;HPM_P2
2022/09/05 00:02:05;;;;;;;0.73;0.60;;;24.70;56.20;;;;;;5065669;28;20028;-63
2022/09/05 00:05:07;;;;;;;0.63;0.63;;;24.70;56.10;;;;;;5065578;28;20232;-63
2022/09/05 00:07:39;;;;;;;0.70;0.55;;;24.70;56.20;;;;;;5065563;28;20036;-64
2022/09/05 00:10:16;;;;;;;0.50;0.50;;;24.70;56.20;;;;;;5065521;28;20024;-62
2022/09/05 00:12:42;;;;;;;1.17;0.77;;;24.70;56.20;;;;;;5065339;28;20024;-62
2022/09/05 00:15:14;;;;;;;0.50;0.50;;;24.70;56.20;;;;;;5065348;28;20013;-62
2022/09/05 00:18:10;;;;;;;0.40;0.40;;;24.70;56.20;;;;;;5064726;28;20017;-63
2022/09/05 00:21:07;;;;;;;0.63;0.63;;;24.70;56.20;;;;;;5065251;28;20012;-63
2022/09/05 00:23:58;;;;;;;0.70;0.70;;;24.70;56.20;;;;;;5064944;28;20075;-63
2022/09/05 00:26:49;;;;;;;0.43;0.43;;;24.70;56.30;;;;;;5065469;28;20059;-63
2022/09/05 00:29:36;;;;;;;0.57;0.55;;;24.70;56.20;;;;;;5065145;28;20020;-63
2022/09/05 00:32:11;;;;;;;0.60;0.60;;;24.70;56.20;;;;;;5065020;28;20082;-63
2022/09/05 00:34:58;;;;;;;0.60;0.60;;;24.70;56.30;;;;;;5065006;28;20017;-64
2022/09/05 00:37:37;;;;;;;0.50;0.50;;;24.70;56.30;;;;;;5064962;28;20017;-63
2022/09/05 00:40:25;;;;;;;2.38;0.52;;;24.70;56.30;;;;;;5064853;28;20024;-64
2022/09/05 00:43:13;;;;;;;0.73;0.73;;;24.70;56.30;;;;;;5064890;28;20025;-64
2022/09/05 00:45:49;;;;;;;0.60;0.50;;;24.70;56.30;;;;;;5064529;28;20037;-64
2022/09/05 00:48:23;;;;;;;0.60;0.60;;;24.70;56.30;;;;;;5064701;28;20024;-64
2022/09/05 00:51:16;;;;;;;0.70;0.60;;;24.70;56.20;;;;;;5064532;28;20048;-65
2022/09/05 00:54:03;;;;;;;0.40;0.40;;;24.70;56.30;;;;;;5064854;28;20016;-64
2022/09/05 00:56:57;;;;;;;0.65;0.65;;;24.70;56.30;;;;;;5064589;28;20020;-64
2022/09/05 00:59:43;;;;;;;0.73;0.70;;;24.70;56.90;;;;;;5064599;28;20313;-65
2022/09/05 01:02:27;;;;;;;0.65;0.65;;;24.70;56.30;;;;;;5064446;28;20024;-63
2022/09/05 01:05:27;;;;;;;0.50;0.50;;;24.70;56.30;;;;;;5064504;28;20243;-64
2022/09/05 01:08:20;;;;;;;0.60;0.60;;;24.70;56.30;;;;;;5064409;28;20016;-64
2022/09/05 01:11:09;;;;;;;0.65;0.65;;;24.60;56.30;;;;;;5064317;28;20017;-63
2022/09/05 01:13:53;;;;;;;1.17;0.88;;;24.70;56.40;;;;;;5064113;28;20027;-64
2022/09/05 01:16:33;;;;;;;0.68;0.68;;;24.60;56.30;;;;;;5064170;28;20208;-64
2022/09/05 01:19:28;;;;;;;0.60;0.60;;;24.60;56.30;;;;;;5064247;28;20223;-63
2022/09/05 01:22:20;;;;;;;0.50;0.50;;;24.60;56.30;;;;;;5064153;28;20020;-62
2022/09/05 01:25:02;;;;;;;0.60;0.60;;;24.60;56.30;;;;;;5064089;28;20025;-64
2022/09/05 01:27:48;;;;;;;0.70;0.70;;;24.60;56.20;;;;;;5064085;28;20058;-64
2022/09/05 01:30:20;;;;;;;0.82;0.82;;;24.60;56.30;;;;;;5063164;28;20028;-64
2022/09/05 01:32:57;;;;;;;0.65;0.65;;;24.60;56.30;;;;;;5063896;28;20383;-63
2022/09/05 01:35:41;;;;;;;0.65;0.65;;;24.60;56.30;;;;;;5063928;28;20029;-64
2022/09/05 01:38:18;;;;;;;0.50;0.50;;;24.60;56.20;;;;;;5063903;28;20021;-64
2022/09/05 01:41:15;;;;;;;0.73;0.73;;;24.60;56.20;;;;;;5063912;28;20023;-64
2022/09/05 01:43:59;;;;;;;0.70;0.70;;;24.60;56.30;;;;;;5063853;28;20366;-64
2022/09/05 01:46:42;;;;;;;0.75;0.75;;;24.60;56.30;;;;;;5063767;28;20334;-63
2022/09/05 01:49:24;;;;;;;1.20;0.60;;;24.60;56.30;;;;;;5063707;28;20028;-62
2022/09/05 01:52:24;;;;;;;0.60;0.60;;;24.60;56.30;;;;;;5063109;28;20053;-64
2022/09/05 01:55:18;;;;;;;0.70;0.70;;;24.60;56.30;;;;;;5063645;28;20034;-64
2022/09/05 01:57:55;;;;;;;0.47;0.47;;;24.60;56.30;;;;;;5063595;28;20021;-64
2022/09/05 02:00:23;;;;;;;0.60;0.50;;;24.60;56.30;;;;;;5063628;28;20091;-63
2022/09/05 02:03:20;;;;;;;0.73;0.73;;;24.60;56.30;;;;;;5063558;28;20080;-63
2022/09/05 02:06:26;;;;;;;1.02;0.70;;;24.60;56.30;;;;;;5063491;28;20260;-64
2022/09/05 02:09:10;;;;;;;0.70;0.60;;;24.60;56.30;;;;;;5063461;28;20021;-63
2022/09/05 02:11:46;;;;;;;0.60;0.60;;;24.60;56.30;;;;;;5063370;28;20025;-64
2022/09/05 02:14:53;;;;;;;0.70;0.70;;;24.60;56.20;;;;;;5063405;28;20020;-62
2022/09/05 02:17:40;;;;;;;0.57;0.57;;;24.60;56.30;;;;;;5052911;28;20071;-64
2022/09/05 02:20:21;;;;;;;0.60;0.60;;;24.50;56.20;;;;;;5063358;28;20021;-63
2022/09/05 02:23:16;;;;;;;0.60;0.60;;;24.60;56.30;;;;;;5063326;28;20017;-65
2022/09/05 02:26:17;;;;;;;0.52;0.52;;;24.60;56.30;;;;;;5059708;28;20089;-62
2022/09/05 02:28:59;;;;;;;0.65;0.60;;;24.50;56.20;;;;;;5054863;28;20037;-64
2022/09/05 02:31:45;;;;;;;0.77;0.75;;;24.50;56.30;;;;;;5063500;28;20357;-64
2022/09/05 02:34:29;;;;;;;1.35;0.57;;;24.50;56.30;;;;;;5063259;28;20036;-63
2022/09/05 02:37:10;;;;;;;1.00;0.90;;;24.50;56.20;;;;;;5063208;28;20216;-64
2022/09/05 02:39:50;;;;;;;0.50;0.50;;;24.50;56.20;;;;;;5063177;28;20036;-63
2022/09/05 02:42:39;;;;;;;1.00;0.68;;;24.50;56.20;;;;;;5066107;28;20060;-63
2022/09/05 02:45:15;;;;;;;0.70;0.70;;;24.50;56.30;;;;;;5067137;28;20063;-64
2022/09/05 02:48:15;;;;;;;0.47;0.47;;;24.50;56.20;;;;;;5067094;28;20025;-64
2022/09/05 02:51:17;;;;;;;0.70;0.70;;;24.50;56.20;;;;;;5067021;28;20102;-65
2022/09/05 02:53:53;;;;;;;0.98;0.98;;;24.50;56.20;;;;;;5066882;28;20021;-64
2022/09/05 02:56:47;;;;;;;1.08;1.02;;;24.50;56.30;;;;;;5066937;28;20028;-65
2022/09/05 02:59:45;;;;;;;0.73;0.73;;;24.50;56.30;;;;;;5066896;28;20020;-64
2022/09/05 03:02:18;;;;;;;0.63;0.63;;;24.50;56.30;;;;;;5067129;28;20021;-64
2022/09/05 03:04:53;;;;;;;0.50;0.50;;;24.50;56.30;;;;;;5066780;28;20333;-63
2022/09/05 03:07:21;;;;;;;0.70;0.55;;;24.50;56.30;;;;;;5066680;28;20017;-64
2022/09/05 03:10:12;;;;;;;0.50;0.50;;;24.50;56.20;;;;;;5066631;28;20032;-63
2022/09/05 03:13:16;;;;;;;0.70;0.70;;;24.50;56.30;;;;;;5066541;28;20370;-63
2022/09/05 03:16:06;;;;;;;0.60;0.60;;;24.50;56.30;;;;;;5063400;28;20032;-64
2022/09/05 03:18:44;;;;;;;0.93;0.82;;;24.40;56.20;;;;;;5065390;28;20302;-63
2022/09/05 03:21:34;;;;;;;0.73;0.63;;;24.40;56.20;;;;;;5066495;28;20024;-63
2022/09/05 03:24:21;;;;;;;0.35;0.35;;;24.50;56.20;;;;;;5066461;28;20021;-63
2022/09/05 03:27:11;;;;;;;0.60;0.60;;;24.40;56.30;;;;;;5066415;28;20017;-64
2022/09/05 03:30:03;;;;;;;1.00;0.90;;;24.40;56.20;;;;;;5066315;28;20029;-64
2022/09/05 03:33:16;;;;;;;0.52;0.52;;;24.40;56.30;;;;;;5066206;28;20025;-64
2022/09/05 03:35:50;;;;;;;0.65;0.65;;;24.40;56.20;;;;;;5049677;28;20324;-64
2022/09/05 03:38:19;;;;;;;0.60;0.45;;;24.40;56.20;;;;;;5066137;28;20031;-63
2022/09/05 03:41:12;;;;;;;0.50;0.50;;;24.40;56.20;;;;;;5066076;28;20017;-64
2022/09/05 03:43:53;;;;;;;1.55;0.50;;;24.40;56.30;;;;;;5066015;28;20308;-65
2022/09/05 03:46:21;;;;;;;0.73;0.60;;;24.40;56.20;;;;;;5065999;28;20024;-63
2022/09/05 03:49:13;;;;;;;0.68;0.68;;;24.40;56.20;;;;;;5065929;28;20076;-64
2022/09/05 03:51:51;;;;;;;0.60;0.60;;;24.40;56.30;;;;;;5065669;28;20261;-63
2022/09/05 03:54:58;;;;;;;0.77;0.77;;;24.40;56.30;;;;;;5064979;28;20021;-64
2022/09/05 03:57:44;;;;;;;0.80;0.63;;;24.40;56.30;;;;;;5043868;28;20021;-63
2022/09/05 04:00:25;;;;;;;0.70;0.70;;;24.40;56.30;;;;;;5064338;28;20032;-63
2022/09/05 04:02:57;;;;;;;0.95;0.55;;;24.40;56.30;;;;;;5065726;28;20287;-65
2022/09/05 04:05:52;;;;;;;0.50;0.50;;;24.40;56.20;;;;;;5065607;28;20217;-63
2022/09/05 04:08:31;;;;;;;0.80;0.80;;;24.40;56.30;;;;;;5065550;28;20044;-63
2022/09/05 04:11:13;;;;;;;0.65;0.65;;;24.40;56.30;;;;;;5065549;28;20021;-64
2022/09/05 04:13:58;;;;;;;0.73;0.73;;;24.40;56.30;;;;;;5065410;28;20032;-64
2022/09/05 04:16:41;;;;;;;0.85;0.75;;;24.40;56.30;;;;;;5065464;28;20113;-64
2022/09/05 04:19:06;;;;;;;1.38;0.80;;;24.40;56.30;;;;;;5065401;28;20086;-63
2022/09/05 04:21:43;;;;;;;0.75;0.70;;;24.40;56.30;;;;;;5065319;28;20020;-62
2022/09/05 04:24:11;;;;;;;0.70;0.70;;;24.40;56.30;;;;;;5065591;28;20024;-64
2022/09/05 04:26:53;;;;;;;0.60;0.60;;;24.30;56.30;;;;;;5065242;28;20020;-64
2022/09/05 04:29:21;;;;;;;0.70;0.70;;;24.30;56.30;;;;;;5065481;28;20021;-63
2022/09/05 04:32:01;;;;;;;;;;;24.30;56.30;;;;;;5065711;28;20229;-65
2022/09/05 04:34:57;;;;;;;0.57;0.57;;;24.30;56.30;;;;;;5065389;28;20116;-64
2022/09/05 04:37:45;;;;;;;0.50;0.50;;;24.30;56.30;;;;;;5065070;28;20063;-63
2022/09/05 04:40:28;;;;;;;0.60;0.60;;;24.40;56.30;;;;;;5065023;28;20017;-64
2022/09/05 04:43:09;;;;;;;0.70;0.70;;;24.30;56.30;;;;;;5064921;28;20092;-63
2022/09/05 04:45:44;;;;;;;0.50;0.50;;;24.30;56.30;;;;;;5064890;28;20032;-64
2022/09/05 04:48:14;;;;;;;1.02;0.93;;;24.30;56.30;;;;;;5064826;28;20017;-63
2022/09/05 04:51:01;;;;;;;1.05;0.70;;;24.30;56.30;;;;;;5064610;28;20044;-64
2022/09/05 04:53:55;;;;;;;0.70;0.40;;;24.30;56.30;;;;;;5064634;28;20017;-64
2022/09/05 04:56:33;;;;;;;0.70;0.60;;;24.30;56.30;;;;;;5064694;28;20024;-64
2022/09/05 04:59:08;;;;;;;0.85;0.63;;;24.30;56.30;;;;;;5064676;28;20083;-64
2022/09/05 05:02:05;;;;;;;0.60;0.60;;;24.30;56.30;;;;;;5064560;28;20017;-64
2022/09/05 05:04:31;;;;;;;0.93;0.70;;;24.30;56.40;;;;;;5059778;28;20047;-63
2022/09/05 05:07:10;;;;;;;0.60;0.60;;;24.30;56.30;;;;;;5064453;28;20205;-64
2022/09/05 05:09:43;;;;;;;1.25;0.88;;;24.30;56.40;;;;;;5064377;28;20019;-62
2022/09/05 05:12:29;;;;;;;0.60;0.60;;;24.20;56.30;;;;;;5064309;28;20020;-64
2022/09/05 05:15:01;;;;;;;0.50;0.50;;;24.30;56.30;;;;;;5064354;28;20055;-64
2022/09/05 05:17:37;;;;;;;0.60;0.60;;;24.30;56.30;;;;;;5064296;28;20020;-64
2022/09/05 05:20:35;;;;;;;0.52;0.52;;;24.30;56.40;;;;;;5064251;28;20032;-64
2022/09/05 05:23:02;;;;;;;0.98;0.80;;;24.20;56.40;;;;;;5064156;28;20092;-64
2022/09/05 05:25:32;;;;;;;0.55;0.55;;;24.20;56.40;;;;;;5064141;28;20024;-63
2022/09/05 05:28:12;;;;;;;0.68;0.63;;;24.20;56.40;;;;;;5064077;28;20021;-63
2022/09/05 05:30:39;;;;;;;0.75;0.75;;;24.20;56.40;;;;;;5064322;28;20131;-62
2022/09/05 05:33:24;;;;;;;1.17;0.60;;;24.20;56.40;;;;;;5063923;28;20017;-64
2022/09/05 05:35:51;;;;;;;0.68;0.68;;;24.20;56.40;;;;;;5063939;28;20062;-65
2022/09/05 05:38:16;;;;;;;0.75;0.60;;;24.20;56.40;;;;;;5063913;28;20013;-62
2022/09/05 05:41:07;;;;;;;0.98;0.88;;;24.20;56.40;;;;;;5063839;28;20021;-63
2022/09/05 05:43:39;;;;;;;0.43;0.43;;;24.20;56.40;;;;;;5052555;28;20036;-64
2022/09/05 05:46:05;;;;;;;0.63;0.60;;;24.20;56.40;;;;;;5064058;28;20025;-64
2022/09/05 05:48:34;;;;;;;0.65;0.50;;;24.20;56.50;;;;;;5063755;28;20020;-64
2022/09/05 05:51:35;;;;;;;0.95;0.60;;;24.20;56.40;;;;;;5063535;28;20056;-62
2022/09/05 05:54:10;;;;;;;0.45;0.45;;;24.20;56.50;;;;;;5060537;28;20029;-64
2022/09/05 05:57:03;;;;;;;2.08;0.80;;;24.20;56.50;;;;;;5063639;28;20400;-63
2022/09/05 05:59:46;;;;;;;0.63;0.63;;;24.20;56.50;;;;;;5063601;28;20374;-64
2022/09/05 06:02:49;;;;;;;0.60;0.60;;;24.20;56.40;;;;;;5063603;28;20020;-63
2022/09/05 06:05:24;;;;;;;0.70;0.70;;;24.20;56.50;;;;;;5063511;28;20320;-64
2022/09/05 06:08:19;;;;;;;0.60;0.60;;;24.20;56.40;;;;;;5063482;28;20320;-64
2022/09/05 06:11:22;;;;;;;0.50;0.50;;;24.20;56.40;;;;;;5063482;28;20086;-64
2022/09/05 06:14:18;;;;;;;0.50;0.50;;;24.20;56.50;;;;;;5063322;28;20021;-64
2022/09/05 06:17:02;;;;;;;1.33;0.77;;;24.20;56.50;;;;;;5061750;28;20200;-63
2022/09/05 06:19:55;;;;;;;0.70;0.70;;;24.20;56.40;;;;;;5063382;28;20208;-63
2022/09/05 06:22:32;;;;;;;0.40;0.40;;;24.20;56.50;;;;;;5063351;28;20194;-64
2022/09/05 06:25:18;;;;;;;0.80;0.80;;;24.20;56.50;;;;;;5063280;28;20240;-63
2022/09/05 06:28:01;;;;;;;0.60;0.60;;;24.20;56.40;;;;;;5052312;28;20037;-62
2022/09/05 06:30:33;;;;;;;0.50;0.50;;;24.20;56.40;;;;;;5063247;28;20063;-65
2022/09/05 06:33:32;;;;;;;0.50;0.50;;;24.20;56.50;;;;;;5063408;28;20052;-65
2022/09/05 06:36:10;;;;;;;0.50;0.50;;;24.20;56.40;;;;;;5063217;28;20025;-64
2022/09/05 06:39:10;;;;;;;0.40;0.40;;;24.20;56.40;;;;;;5063162;28;20084;-63
2022/09/05 06:41:35;;;;;;;0.80;0.80;;;24.20;56.40;;;;;;5063155;28;20042;-62
2022/09/05 06:44:21;;;;;;;0.57;0.57;;;24.20;56.40;;;;;;5063113;28;20305;-63
2022/09/05 06:46:50;;;;;;;0.70;0.70;;;24.20;56.40;;;;;;5063412;28;20239;-64
2022/09/05 06:49:34;;;;;;;0.80;0.80;;;24.20;56.40;;;;;;5063057;28;20013;-63
2022/09/05 06:52:23;;;;;;;1.85;0.60;;;24.20;56.40;;;;;;5063397;28;20052;-64
2022/09/05 06:54:52;;;;;;;0.80;0.52;;;24.20;56.30;;;;;;5063036;28;20232;-64
2022/09/05 06:57:18;;;;;;;0.77;0.70;;;24.20;56.90;;;;;;5062971;28;20255;-64
2022/09/05 06:59:55;;;;;;;0.60;0.60;;;24.30;56.30;;;;;;5062933;28;20066;-62
2022/09/05 07:02:44;;;;;;;0.52;0.52;;;24.30;56.30;;;;;;5062950;28;20062;-64
2022/09/05 07:05:40;;;;;;;1.70;0.63;;;24.30;56.30;;;;;;5062952;28;20021;-63
2022/09/05 07:08:25;;;;;;;0.60;0.60;;;24.30;56.30;;;;;;5062938;28;20017;-64
2022/09/05 07:11:19;;;;;;;0.77;0.77;;;24.20;56.30;;;;;;5062920;28;20115;-64
2022/09/05 07:13:53;;;;;;;0.60;0.60;;;24.30;56.40;;;;;;5062770;28;20043;-64
2022/09/05 07:16:35;;;;;;;0.70;0.60;;;24.20;56.30;;;;;;5062849;28;20013;-64
2022/09/05 07:19:00;;;;;;;0.60;0.50;;;24.30;56.40;;;;;;5062846;28;20020;-64
2022/09/05 07:21:31;;;;;;;0.70;0.70;;;24.30;56.30;;;;;;5062758;28;20021;-63
2022/09/05 07:24:15;;;;;;;0.77;0.60;;;24.30;56.30;;;;;;5062746;28;20174;-65
2022/09/05 07:26:46;;;;;;;1.30;0.68;;;24.30;56.20;;;;;;5062788;28;20013;-64
2022/09/05 07:29:17;;;;;;;0.60;0.60;;;24.30;56.20;;;;;;5065295;28;20017;-64
2022/09/05 07:31:49;;;;;;;0.75;0.65;;;24.30;56.30;;;;;;5066218;28;20062;-64
2022/09/05 07:34:25;;;;;;;0.73;0.73;;;24.30;56.40;;;;;;5066237;28;20017;-63
2022/09/05 07:36:55;;;;;;;0.65;0.55;;;24.20;56.40;;;;;;5066221;28;20228;-64
2022/09/05 07:39:35;;;;;;;1.02;0.50;;;24.20;56.40;;;;;;5066121;28;20017;-64
2022/09/05 07:42:06;;;;;;;0.60;0.60;;;24.20;56.40;;;;;;5066110;28;20021;-64
2022/09/05 07:44:35;;;;;;;0.60;0.60;;;24.20;56.40;;;;;;5066346;28;20028;-63
2022/09/05 07:47:06;;;;;;;0.63;0.63;;;24.30;56.40;;;;;;5065973;28;20317;-64
2022/09/05 07:49:35;;;;;;;0.45;0.45;;;24.30;56.30;;;;;;5065988;28;20268;-63
2022/09/05 07:52:09;;;;;;;0.47;0.47;;;24.30;56.30;;;;;;5065701;28;20037;-64
2022/09/05 07:54:43;;;;;;;0.70;0.70;;;24.30;56.20;;;;;;5065894;28;20020;-64
2022/09/05 07:57:10;;;;;;;0.60;0.60;;;24.30;56.20;;;;;;5066084;28;20047;-63
2022/09/05 07:59:41;;;;;;;0.45;0.45;;;24.40;56.20;;;;;;5065990;28;20017;-64
2022/09/05 08:02:10;;;;;;;0.50;0.50;;;24.30;56.20;;;;;;5065733;28;20020;-64
2022/09/05 08:04:39;;;;;;;0.68;0.68;;;24.40;56.10;;;;;;5065639;28;20084;-64
2022/09/05 08:07:11;;;;;;;0.52;0.50;;;24.40;56.20;;;;;;5065594;28;20140;-64
2022/09/05 08:09:42;;;;;;;0.55;0.50;;;24.40;56.10;;;;;;5065856;28;20017;-64
2022/09/05 08:12:19;;;;;;;0.68;0.68;;;24.40;56.10;;;;;;5065491;28;20017;-63
2022/09/05 08:15:07;;;;;;;0.75;0.75;;;24.40;56.10;;;;;;5065456;28;20028;-63
2022/09/05 08:18:14;;;;;;;0.47;0.47;;;24.40;56.10;;;;;;5065424;28;20174;-63
2022/09/05 08:21:12;;;;;;;0.70;0.70;;;24.40;56.10;;;;;;5043475;28;20382;-63
2022/09/05 08:24:08;;;;;;;0.43;0.43;;;24.40;56.10;;;;;;5065570;28;20029;-64
2022/09/05 08:26:46;;;;;;;1.90;0.70;;;24.40;56.10;;;;;;5065520;28;20021;-63
2022/09/05 08:29:35;;;;;;;0.55;0.55;;;24.40;56.10;;;;;;5065183;28;20078;-62
2022/09/05 08:32:13;;;;;;;0.63;0.63;;;24.40;56.10;;;;;;5065089;28;20096;-64
2022/09/05 08:34:47;;;;;;;;;;;24.40;56.10;;;;;;5065525;28;20023;-64
2022/09/05 08:37:19;;;;;;;0.80;0.80;;;24.40;56.00;;;;;;5065027;28;19901;-66
2022/09/05 08:39:48;;;;;;;0.70;0.60;;;24.40;56.00;;;;;;5064535;28;20017;-64
2022/09/05 08:42:37;;;;;;;0.50;0.50;;;24.40;56.00;;;;;;5064885;28;20202;-64
2022/09/05 08:45:18;;;;;;;3.35;0.70;;;24.40;56.00;;;;;;5064901;28;20083;-64
2022/09/05 08:47:55;;;;;;;0.55;0.55;;;24.50;56.00;;;;;;5064809;28;20023;-62
2022/09/05 08:50:42;;;;;;;0.60;0.60;;;24.50;56.00;;;;;;5064601;28;20045;-63
2022/09/05 08:53:34;;;;;;;0.57;0.57;;;24.50;56.00;;;;;;5064649;28;20119;-63
2022/09/05 08:56:45;;;;;;;0.50;0.50;;;24.50;56.00;;;;;;5064936;28;20017;-65
2022/09/05 08:59:23;;;;;;;0.45;0.45;;;24.50;56.00;;;;;;5062561;28;20025;-64
2022/09/05 09:02:01;;;;;;;0.80;0.80;;;24.50;55.90;;;;;;5064542;28;20327;-63
2022/09/05 09:05:20;;;;;;;3.05;0.80;;;24.50;55.90;;;;;;5064790;28;20259;-64
2022/09/05 09:07:56;;;;;;;0.50;0.50;;;24.60;56.00;;;;;;5042727;28;20079;-64
2022/09/05 09:10:37;;;;;;;0.70;0.70;;;24.60;56.00;;;;;;5042583;28;20085;-63
2022/09/05 09:13:51;;;;;;;0.40;0.40;;;24.50;55.90;;;;;;5058604;28;20035;-63
2022/09/05 09:16:22;;;;;;;0.43;0.43;;;24.60;56.00;;;;;;5052489;28;20088;-64
2022/09/05 09:18:48;;;;;;;0.70;0.70;;;24.60;55.90;;;;;;5064227;28;20016;-63
2022/09/05 09:21:26;;;;;;;0.40;0.40;;;24.60;55.90;;;;;;5064188;28;20186;-63
2022/09/05 09:24:06;;;;;;;0.52;0.52;;;24.60;55.90;;;;;;5064518;28;20088;-64
2022/09/05 09:26:49;;;;;;;0.80;0.80;;;24.60;55.90;;;;;;5064122;28;20055;-63
2022/09/05 09:29:17;;;;;;;0.70;0.70;;;24.60;56.00;;;;;;5064383;28;20025;-64
2022/09/05 09:32:10;;;;;;;0.50;0.50;;;24.60;55.90;;;;;;5064220;28;20021;-63
2022/09/05 09:34:46;;;;;;;0.70;0.70;;;24.60;55.90;;;;;;5064266;28;20196;-63
2022/09/05 09:37:26;;;;;;;0.65;0.63;;;24.60;55.80;;;;;;5063964;28;20013;-64
2022/09/05 09:39:55;;;;;;;0.70;0.70;;;24.60;55.80;;;;;;5064426;28;20067;-63
2022/09/05 09:42:36;;;;;;;0.43;0.43;;;24.60;55.90;;;;;;5063849;28;20025;-64
2022/09/05 09:45:37;;;;;;;0.63;0.63;;;24.60;56.00;;;;;;5064064;28;20021;-63
2022/09/05 09:48:09;;;;;;;0.65;0.65;;;24.60;56.00;;;;;;5064077;28;20046;-64
2022/09/05 09:50:56;;;;;;;0.50;0.50;;;24.60;56.00;;;;;;5062808;28;20108;-64
2022/09/05 09:53:51;;;;;;;0.70;0.70;;;24.60;56.00;;;;;;5063913;28;20021;-64
2022/09/05 09:56:38;;;;;;;0.60;0.60;;;24.60;56.00;;;;;;5063936;28;20080;-63
2022/09/05 09:59:29;;;;;;;0.82;0.68;;;24.60;55.80;;;;;;5064126;28;20055;-64
2022/09/05 10:02:19;;;;;;;0.60;0.60;;;24.60;55.90;;;;;;5063563;28;20017;-64
2022/09/05 10:05:06;;;;;;;0.60;0.60;;;24.70;56.00;;;;;;5063580;28;20220;-65
2022/09/05 10:07:35;;;;;;;0.63;0.63;;;24.70;55.90;;;;;;5063572;28;20081;-63
2022/09/05 10:10:11;;;;;;;0.85;0.50;;;24.70;55.90;;;;;;5063462;28;20020;-64
2022/09/05 10:13:10;;;;;;;0.88;0.73;;;24.70;55.80;;;;;;5063341;28;20221;-63
2022/09/05 10:16:00;;;;;;;0.70;0.70;;;24.70;55.90;;;;;;5063438;28;20021;-64
2022/09/05 10:18:43;;;;;;;0.45;0.45;;;24.60;56.00;;;;;;5063652;28;20251;-64
2022/09/05 10:21:18;;;;;;;0.57;0.57;;;24.60;56.10;;;;;;5063379;28;20059;-64
2022/09/05 10:24:11;;;;;;;0.50;0.50;;;24.60;56.10;;;;;;5063596;28;20025;-63
2022/09/05 10:26:52;;;;;;;0.70;0.70;;;24.70;56.00;;;;;;5063329;28;20021;-64
2022/09/05 10:29:41;;;;;;;0.85;0.77;;;24.70;55.90;;;;;;5063216;28;20301;-63
2022/09/05 10:32:16;;;;;;;0.60;0.60;;;24.70;56.50;;;;;;5063232;28;20027;-64
2022/09/05 10:34:55;;;;;;;0.82;0.80;;;24.70;55.80;;;;;;5062247;28;20021;-62
2022/09/05 10:37:28;;;;;;;0.60;0.60;;;24.80;55.80;;;;;;5063486;28;20013;-64
2022/09/05 10:39:59;;;;;;;0.40;0.40;;;24.80;55.80;;;;;;5063516;28;20209;-65
2022/09/05 10:42:50;;;;;;;0.70;0.70;;;24.80;55.70;;;;;;5063782;28;20088;-65
2022/09/05 10:45:44;;;;;;;0.60;0.60;;;24.80;55.70;;;;;;5063163;28;20017;-62
2022/09/05 10:48:28;;;;;;;0.40;0.40;;;24.80;55.70;;;;;;5063153;28;20239;-62
2022/09/05 10:51:16;;;;;;;0.50;0.50;;;24.80;55.70;;;;;;5063014;28;20040;-63
2022/09/05 10:54:10;;;;;;;0.70;0.65;;;24.80;55.70;;;;;;5063058;28;20025;-63
2022/09/05 10:56:48;;;;;;;0.50;0.50;;;24.80;55.70;;;;;;5060835;28;20095;-63
2022/09/05 10:59:55;;;;;;;0.57;0.57;;;24.90;55.70;;;;;;5063083;28;20012;-62
2022/09/05 11:02:22;;;;;;;0.40;0.40;;;24.80;55.60;;;;;;5046948;28;20027;-63
2022/09/05 11:05:25;;;;;;;0.50;0.50;;;24.90;55.70;;;;;;5067408;28;20032;-64
2022/09/05 11:08:00;;;;;;;0.60;0.60;;;24.90;55.70;;;;;;5066797;28;20017;-63
2022/09/05 11:10:51;;;;;;;0.60;0.60;;;24.90;55.70;;;;;;5066780;28;20013;-63
2022/09/05 11:13:41;;;;;;;0.50;0.50;;;24.90;55.60;;;;;;5066639;28;20039;-63
2022/09/05 11:16:25;;;;;;;0.50;0.50;;;24.90;55.70;;;;;;5066644;28;20017;-64
2022/09/05 11:18:57;;;;;;;0.50;0.50;;;25.00;55.70;;;;;;5066627;28;20024;-64
2022/09/05 11:21:42;;;;;;;0.50;0.50;;;24.90;55.60;;;;;;5067155;28;20225;-63
2022/09/05 11:24:31;;;;;;;0.70;0.60;;;24.90;55.60;;;;;;5066782;28;20020;-63
2022/09/05 11:27:09;;;;;;;0.50;0.50;;;25.00;55.60;;;;;;5063372;28;20036;-64
2022/09/05 11:29:38;;;;;;;0.73;0.52;;;25.00;55.60;;;;;;5066458;28;20291;-64
2022/09/05 11:32:31;;;;;;;0.45;0.45;;;25.00;55.60;;;;;;5066273;28;20409;-63
2022/09/05 11:35:09;;;;;;;0.50;0.50;;;25.00;55.60;;;;;;5066306;28;20021;-63
2022/09/05 11:37:34;;;;;;;;;;;25.00;55.60;;;;;;5066667;28;20063;-63
2022/09/05 11:40:12;;;;;;;0.50;0.50;;;25.00;55.60;;;;;;5066177;28;19905;-62
2022/09/05 11:42:50;;;;;;;0.60;0.60;;;25.00;55.50;;;;;;5066145;28;20201;-63
2022/09/05 11:45:28;;;;;;;0.63;0.63;;;25.00;55.50;;;;;;5066107;28;20017;-63
2022/09/05 11:48:21;;;;;;;0.70;0.70;;;25.00;55.50;;;;;;5066035;28;20029;-63
2022/09/05 11:51:00;;;;;;;0.50;0.50;;;25.00;55.50;;;;;;5065752;28;20098;-64
2022/09/05 11:54:12;;;;;;;0.50;0.50;;;25.00;55.50;;;;;;5065877;28;20025;-63
2022/09/05 11:57:15;;;;;;;0.50;0.50;;;25.10;55.50;;;;;;5065841;28;20017;-63
2022/09/05 12:00:17;;;;;;;0.60;0.60;;;25.10;55.50;;;;;;5065771;28;20013;-64
2022/09/05 12:02:53;;;;;;;0.50;0.50;;;25.10;55.50;;;;;;5065773;28;20084;-65
2022/09/05 12:05:51;;;;;;;0.60;0.60;;;25.10;55.50;;;;;;5065674;28;20021;-64
2022/09/05 12:08:35;;;;;;;;;;;25.10;55.50;;;;;;5066088;28;20021;-63
2022/09/05 12:11:09;;;;;;;0.47;0.47;;;25.10;55.50;;;;;;5065573;28;20193;-64
2022/09/05 12:14:01;;;;;;;0.52;0.52;;;25.20;55.50;;;;;;5064654;28;20027;-63
2022/09/05 12:17:01;;;;;;;0.60;0.60;;;25.20;55.50;;;;;;5056288;28;20259;-63
2022/09/05 12:19:33;;;;;;;0.50;0.50;;;25.10;55.60;;;;;;5065409;28;20017;-64
2022/09/05 12:22:13;;;;;;;1.05;0.60;;;25.10;55.60;;;;;;5065322;28;20017;-63
2022/09/05 12:24:53;;;;;;;0.70;0.70;;;25.20;55.50;;;;;;5065595;28;20017;-63
2022/09/05 12:27:25;;;;;;;0.95;0.73;;;25.20;55.50;;;;;;5065261;28;20017;-64
2022/09/05 12:29:57;;;;;;;0.50;0.50;;;25.10;55.50;;;;;;5065562;28;20044;-63
2022/09/05 12:32:25;;;;;;;0.70;0.70;;;25.10;55.60;;;;;;5065055;28;20235;-64
2022/09/05 12:34:56;;;;;;;0.40;0.40;;;25.10;55.70;;;;;;5065103;28;20418;-64
2022/09/05 12:37:22;;;;;;;0.68;0.60;;;25.10;55.80;;;;;;5065098;28;20059;-63
2022/09/05 12:40:11;;;;;;;0.50;0.50;;;25.10;55.60;;;;;;5065027;28;20013;-63
2022/09/05 12:42:47;;;;;;;0.45;0.45;;;25.20;55.50;;;;;;5064848;28;20028;-63
2022/09/05 12:45:13;;;;;;;0.60;0.50;;;25.20;55.50;;;;;;5065005;28;20036;-64
2022/09/05 12:48:08;;;;;;;0.57;0.57;;;25.30;55.50;;;;;;5064893;28;20064;-65
2022/09/05 12:50:44;;;;;;;0.50;0.50;;;25.30;55.40;;;;;;5058830;28;20123;-64
2022/09/05 12:53:17;;;;;;;0.60;0.60;;;25.30;55.30;;;;;;5064693;28;20327;-63
2022/09/05 12:55:58;;;;;;;0.50;0.50;;;25.40;55.30;;;;;;5064739;28;20021;-63
2022/09/05 12:58:29;;;;;;;0.63;0.63;;;25.40;55.30;;;;;;5063118;28;20255;-63
2022/09/05 13:01:15;;;;;;;0.50;0.50;;;25.40;55.10;;;;;;5064632;28;20305;-63
2022/09/05 13:04:23;;;;;;;0.75;0.50;;;25.50;55.10;;;;;;5064569;28;20025;-64
2022/09/05 13:07:08;;;;;;;0.60;0.60;;;25.50;55.00;;;;;;5064396;28;20100;-64
2022/09/05 13:09:45;;;;;;;0.60;0.60;;;25.60;54.90;;;;;;5064490;28;20021;-62
2022/09/05 13:12:23;;;;;;;0.60;0.60;;;25.70;54.80;;;;;;5064379;28;20375;-64
2022/09/05 13:15:06;;;;;;;0.52;0.52;;;25.80;54.50;;;;;;5064380;28;20025;-63
2022/09/05 13:17:43;;;;;;;0.60;0.60;;;25.90;54.30;;;;;;5064352;28;20081;-64
2022/09/05 13:20:35;;;;;;;0.68;0.60;;;25.90;54.20;;;;;;5064611;28;20017;-64
2022/09/05 13:23:35;;;;;;;0.90;0.90;;;25.70;54.60;;;;;;5064222;28;20028;-64
2022/09/05 13:26:09;;;;;;;0.63;0.63;;;25.80;54.50;;;;;;5064137;28;20021;-64
2022/09/05 13:28:42;;;;;;;0.50;0.50;;;25.70;54.70;;;;;;5062960;28;20244;-63
2022/09/05 13:31:09;;;;;;;0.50;0.50;;;25.90;54.30;;;;;;5064046;28;20216;-64
2022/09/05 13:33:47;;;;;;;0.60;0.60;;;26.10;53.90;;;;;;5063952;28;20019;-64
2022/09/05 13:36:32;;;;;;;;;;;26.30;53.40;;;;;;5064361;28;20048;-64
2022/09/05 13:39:06;;;;;;;0.55;0.55;;;26.50;53.20;;;;;;5063925;28;19901;-63
2022/09/05 13:41:36;;;;;;;0.60;0.60;;;26.60;52.90;;;;;;5063903;28;20051;-64
2022/09/05 13:44:13;;;;;;;0.52;0.52;;;26.80;52.60;;;;;;5064112;28;20388;-64
2022/09/05 13:47:15;;;;;;;0.60;0.60;;;26.90;52.20;;;;;;5063816;28;20066;-64
2022/09/05 13:50:12;;;;;;;0.55;0.55;;;27.00;52.00;;;;;;5063717;28;20080;-63
2022/09/05 13:52:58;;;;;;;0.60;0.60;;;27.10;51.60;;;;;;5058736;28;20068;-61
2022/09/05 13:56:13;;;;;;;0.60;0.60;;;27.30;51.40;;;;;;5063541;28;20064;-63
2022/09/05 13:58:52;;;;;;;0.60;0.60;;;27.30;51.30;;;;;;5061403;28;20029;-62
2022/09/05 14:01:27;;;;;;;0.70;0.70;;;27.40;51.20;;;;;;5063605;28;20032;-62
2022/09/05 14:04:30;;;;;;;0.80;0.68;;;27.40;51.20;;;;;;5063542;28;20048;-63
2022/09/05 14:07:33;;;;;;;0.50;0.50;;;27.40;51.10;;;;;;5063504;28;20182;-64
2022/09/05 14:10:32;;;;;;;0.55;0.55;;;27.60;51.00;;;;;;5063750;28;20021;-64